sensor_id;sensor_type;location;lat;lon;timestamp;noise_LAeq;noise_LA_min;noise_LA_max;noise_LA01;noise_LA95
69616;Laerm;56822;52.516;4.708;2023-10-31T00:00:04;46.28;37.72;67.19;;
69616;Laerm;56822;52.516;4.708;2023-10-31T00:00:14;50.23;38.34;71.21;;
69616;Laerm;56822;52.516;4.708;2023-10-31T00:00:25;55.03;39.23;79.36;;
69616;Laerm;56822;52.516;4.708;2023-10-31T00:00:35;44.99;39.85;58.38;;
69616;Laerm;56822;52.516;4.708;2023-10-31T00:00:45;45.76;40.44;63.71;;
69616;Laerm;56822;52.516;4.708;2023-10-31T00:00:55;43.28;39.28;55.63;;
69616;Laerm;56822;52.516;4.708;2023-10-31T00:01:06;43.43;38.58;54.49;;
69616;Laerm;56822;52.516;4.708;2023-10-31T00:01:16;46.87;38.16;65.53;;
69616;Laerm;56822;52.516;4.708;2023-10-31T00:01:26;60.50;38.55;84.96;;
69616;Laerm;56822;52.516;4.708;2023-10-31T00:01:36;62.96;39.53;87.60;;
69616;Laerm;56822;52.516;4.708;2023-10-31T00:01:47;48.39;38.40;67.61;;
69616;Laerm;56822;52.516;4.708;2023-10-31T00:01:59;46.12;38.37;65.04;;
69616;Laerm;56822;52.516;4.708;2023-10-31T00:02:09;45.55;38.75;66.06;;
69616;Laerm;56822;52.516;4.708;2023-10-31T00:02:19;43.59;37.45;55.63;;
69616;Laerm;56822;52.516;4.708;2023-10-31T00:02:30;47.60;38.45;70.09;;
69616;Laerm;56822;52.516;4.708;2023-10-31T00:02:41;43.24;38.64;51.25;;
69616;Laerm;56822;52.516;4.708;2023-10-31T00:02:51;50.48;37.93;73.39;;
69616;Laerm;56822;52.516;4.708;2023-10-31T00:03:02;56.00;37.81;80.50;;
69616;Laerm;56822;52.516;4.708;2023-10-31T00:03:12;42.83;37.48;51.37;;
69616;Laerm;56822;52.516;4.708;2023-10-31T00:03:22;59.76;37.98;84.33;;
69616;Laerm;56822;52.516;4.708;2023-10-31T00:03:33;45.94;38.99;65.30;;
69616;Laerm;56822;52.516;4.708;2023-10-31T00:03:43;54.59;38.65;78.55;;
69616;Laerm;56822;52.516;4.708;2023-10-31T00:03:54;50.47;38.43;71.41;;
69616;Laerm;56822;52.516;4.708;2023-10-31T00:04:05;54.93;37.12;79.10;;
69616;Laerm;56822;52.516;4.708;2023-10-31T00:04:15;52.36;38.59;76.41;;
69616;Laerm;56822;52.516;4.708;2023-10-31T00:04:25;64.55;38.31;87.75;;
69616;Laerm;56822;52.516;4.708;2023-10-31T00:04:35;60.32;39.40;84.84;;
69616;Laerm;56822;52.516;4.708;2023-10-31T00:04:46;44.67;38.51;58.76;;
69616;Laerm;56822;52.516;4.708;2023-10-31T00:04:56;43.22;37.74;52.68;;
69616;Laerm;56822;52.516;4.708;2023-10-31T00:05:06;66.22;37.02;90.91;;
69616;Laerm;56822;52.516;4.708;2023-10-31T00:05:17;43.62;37.18;58.47;;
69616;Laerm;56822;52.516;4.708;2023-10-31T00:05:27;44.61;36.44;64.40;;
69616;Laerm;56822;52.516;4.708;2023-10-31T00:05:37;43.05;38.39;51.45;;
69616;Laerm;56822;52.516;4.708;2023-10-31T00:05:47;43.99;37.62;60.53;;
69616;Laerm;56822;52.516;4.708;2023-10-31T00:05:58;43.58;38.67;55.15;;
69616;Laerm;56822;52.516;4.708;2023-10-31T00:06:08;43.34;38.73;48.75;;
69616;Laerm;56822;52.516;4.708;2023-10-31T00:06:18;45.78;38.82;64.42;;
69616;Laerm;56822;52.516;4.708;2023-10-31T00:06:29;43.31;38.79;54.63;;
69616;Laerm;56822;52.516;4.708;2023-10-31T00:06:39;61.91;38.63;85.76;;
69616;Laerm;56822;52.516;4.708;2023-10-31T00:06:49;52.65;37.72;76.87;;
69616;Laerm;56822;52.516;4.708;2023-10-31T00:06:59;64.68;37.25;89.34;;
69616;Laerm;56822;52.516;4.708;2023-10-31T00:07:10;47.69;37.21;70.17;;
69616;Laerm;56822;52.516;4.708;2023-10-31T00:07:20;43.77;38.20;55.04;;
69616;Laerm;56822;52.516;4.708;2023-10-31T00:07:30;46.70;39.28;66.28;;
69616;Laerm;56822;52.516;4.708;2023-10-31T00:07:40;48.52;39.38;69.94;;
69616;Laerm;56822;52.516;4.708;2023-10-31T00:07:51;64.45;38.73;89.05;;
69616;Laerm;56822;52.516;4.708;2023-10-31T00:08:01;64.64;37.92;89.28;;
69616;Laerm;56822;52.516;4.708;2023-10-31T00:08:11;56.60;37.67;81.13;;
69616;Laerm;56822;52.516;4.708;2023-10-31T00:08:21;43.00;38.15;49.83;;
69616;Laerm;56822;52.516;4.708;2023-10-31T00:08:32;60.84;37.62;84.02;;
69616;Laerm;56822;52.516;4.708;2023-10-31T00:08:42;66.25;36.73;90.91;;
69616;Laerm;56822;52.516;4.708;2023-10-31T00:08:52;43.33;37.36;58.34;;
69616;Laerm;56822;52.516;4.708;2023-10-31T00:09:03;42.23;38.29;52.49;;
69616;Laerm;56822;52.516;4.708;2023-10-31T00:09:13;65.28;36.55;90.01;;
69616;Laerm;56822;52.516;4.708;2023-10-31T00:09:23;43.84;36.74;60.25;;
69616;Laerm;56822;52.516;4.708;2023-10-31T00:09:33;42.59;36.16;57.18;;
69616;Laerm;56822;52.516;4.708;2023-10-31T00:09:44;41.87;36.46;49.96;;
69616;Laerm;56822;52.516;4.708;2023-10-31T00:09:54;44.99;36.97;63.42;;
69616;Laerm;56822;52.516;4.708;2023-10-31T00:10:04;42.45;37.36;55.33;;
69616;Laerm;56822;52.516;4.708;2023-10-31T00:10:15;61.04;37.04;82.99;;
69616;Laerm;56822;52.516;4.708;2023-10-31T00:10:25;60.79;37.37;84.85;;
69616;Laerm;56822;52.516;4.708;2023-10-31T00:10:36;42.36;38.11;53.25;;
69616;Laerm;56822;52.516;4.708;2023-10-31T00:10:46;45.58;35.58;67.24;;
69616;Laerm;56822;52.516;4.708;2023-10-31T00:10:56;43.37;36.54;61.93;;
69616;Laerm;56822;52.516;4.708;2023-10-31T00:11:07;42.30;35.42;53.63;;
69616;Laerm;56822;52.516;4.708;2023-10-31T00:11:17;42.53;37.54;56.14;;
69616;Laerm;56822;52.516;4.708;2023-10-31T00:11:27;55.24;36.80;79.30;;
69616;Laerm;56822;52.516;4.708;2023-10-31T00:11:38;43.37;37.47;58.56;;
69616;Laerm;56822;52.516;4.708;2023-10-31T00:11:48;44.77;38.90;60.72;;
69616;Laerm;56822;52.516;4.708;2023-10-31T00:11:58;44.11;39.17;53.70;;
69616;Laerm;56822;52.516;4.708;2023-10-31T00:12:08;55.49;38.24;79.58;;
69616;Laerm;56822;52.516;4.708;2023-10-31T00:12:19;50.23;37.62;74.17;;
69616;Laerm;56822;52.516;4.708;2023-10-31T00:12:29;67.03;36.90;91.69;;
69616;Laerm;56822;52.516;4.708;2023-10-31T00:12:39;44.31;37.67;58.76;;
69616;Laerm;56822;52.516;4.708;2023-10-31T00:12:50;43.75;37.21;56.45;;
69616;Laerm;56822;52.516;4.708;2023-10-31T00:13:00;68.72;36.70;93.42;;
69616;Laerm;56822;52.516;4.708;2023-10-31T00:13:10;41.91;36.79;52.88;;
69616;Laerm;56822;52.516;4.708;2023-10-31T00:13:21;66.82;36.76;91.78;;
69616;Laerm;56822;52.516;4.708;2023-10-31T00:13:32;70.37;37.44;95.06;;
69616;Laerm;56822;52.516;4.708;2023-10-31T00:13:42;44.70;38.58;58.66;;
69616;Laerm;56822;52.516;4.708;2023-10-31T00:13:52;54.06;36.76;78.31;;
69616;Laerm;56822;52.516;4.708;2023-10-31T00:14:03;43.16;37.61;58.41;;
69616;Laerm;56822;52.516;4.708;2023-10-31T00:14:13;62.91;36.95;87.34;;
69616;Laerm;56822;52.516;4.708;2023-10-31T00:14:23;42.77;37.42;52.50;;
69616;Laerm;56822;52.516;4.708;2023-10-31T00:14:34;42.30;35.97;51.69;;
69616;Laerm;56822;52.516;4.708;2023-10-31T00:14:44;64.84;36.37;86.09;;
69616;Laerm;56822;52.516;4.708;2023-10-31T00:14:54;47.36;35.63;69.05;;
69616;Laerm;56822;52.516;4.708;2023-10-31T00:15:04;41.70;36.72;49.03;;
69616;Laerm;56822;52.516;4.708;2023-10-31T00:15:15;47.49;36.47;70.23;;
69616;Laerm;56822;52.516;4.708;2023-10-31T00:15:25;44.51;36.24;65.31;;
69616;Laerm;56822;52.516;4.708;2023-10-31T00:15:35;57.31;35.59;81.95;;
69616;Laerm;56822;52.516;4.708;2023-10-31T00:15:46;42.29;35.12;59.61;;
69616;Laerm;56822;52.516;4.708;2023-10-31T00:15:56;42.60;34.88;59.01;;
69616;Laerm;56822;52.516;4.708;2023-10-31T00:16:06;43.43;35.43;64.03;;
69616;Laerm;56822;52.516;4.708;2023-10-31T00:16:17;63.23;34.39;87.28;;
69616;Laerm;56822;52.516;4.708;2023-10-31T00:16:27;55.20;35.85;79.71;;
69616;Laerm;56822;52.516;4.708;2023-10-31T00:16:37;46.19;35.56;67.42;;
69616;Laerm;56822;52.516;4.708;2023-10-31T00:16:47;65.06;34.54;89.74;;
69616;Laerm;56822;52.516;4.708;2023-10-31T00:16:58;52.09;34.34;75.69;;
69616;Laerm;56822;52.516;4.708;2023-10-31T00:17:09;46.66;34.66;69.14;;
69616;Laerm;56822;52.516;4.708;2023-10-31T00:17:19;41.54;35.05;52.10;;
69616;Laerm;56822;52.516;4.708;2023-10-31T00:17:30;45.57;35.72;68.36;;
69616;Laerm;56822;52.516;4.708;2023-10-31T00:17:40;42.17;34.52;59.51;;
69616;Laerm;56822;52.516;4.708;2023-10-31T00:17:50;54.88;34.13;79.34;;
69616;Laerm;56822;52.516;4.708;2023-10-31T00:18:00;42.83;33.85;61.90;;
69616;Laerm;56822;52.516;4.708;2023-10-31T00:18:11;46.80;34.30;70.38;;
69616;Laerm;56822;52.516;4.708;2023-10-31T00:18:21;40.44;34.43;49.15;;
69616;Laerm;56822;52.516;4.708;2023-10-31T00:18:31;41.27;34.40;55.82;;
69616;Laerm;56822;52.516;4.708;2023-10-31T00:18:42;41.97;35.21;54.61;;
69616;Laerm;56822;52.516;4.708;2023-10-31T00:18:52;41.99;36.60;53.94;;
69616;Laerm;56822;52.516;4.708;2023-10-31T00:19:02;42.47;35.23;55.52;;
69616;Laerm;56822;52.516;4.708;2023-10-31T00:19:13;49.86;36.75;72.42;;
69616;Laerm;56822;52.516;4.708;2023-10-31T00:19:23;52.31;35.13;76.51;;
69616;Laerm;56822;52.516;4.708;2023-10-31T00:19:33;43.38;35.64;61.96;;
69616;Laerm;56822;52.516;4.708;2023-10-31T00:19:43;44.12;35.21;65.72;;
69616;Laerm;56822;52.516;4.708;2023-10-31T00:19:54;41.34;35.60;52.92;;
69616;Laerm;56822;52.516;4.708;2023-10-31T00:20:05;41.24;35.92;48.84;;
69616;Laerm;56822;52.516;4.708;2023-10-31T00:20:15;41.77;36.11;51.73;;
69616;Laerm;56822;52.516;4.708;2023-10-31T00:20:25;42.26;35.92;56.74;;
69616;Laerm;56822;52.516;4.708;2023-10-31T00:20:36;41.87;35.04;49.62;;
69616;Laerm;56822;52.516;4.708;2023-10-31T00:20:46;45.44;36.17;67.55;;
69616;Laerm;56822;52.516;4.708;2023-10-31T00:20:56;44.95;36.78;59.87;;
69616;Laerm;56822;52.516;4.708;2023-10-31T00:21:07;42.91;37.19;53.28;;
69616;Laerm;56822;52.516;4.708;2023-10-31T00:21:18;47.96;38.73;70.19;;
69616;Laerm;56822;52.516;4.708;2023-10-31T00:21:28;70.13;38.30;95.32;;
69616;Laerm;56822;52.516;4.708;2023-10-31T00:21:39;45.26;37.40;65.91;;
69616;Laerm;56822;52.516;4.708;2023-10-31T00:21:49;49.19;37.72;71.25;;
69616;Laerm;56822;52.516;4.708;2023-10-31T00:21:59;43.30;39.15;51.34;;
69616;Laerm;56822;52.516;4.708;2023-10-31T00:22:10;66.44;37.97;91.41;;
69616;Laerm;56822;52.516;4.708;2023-10-31T00:22:20;45.67;37.80;65.98;;
69616;Laerm;56822;52.516;4.708;2023-10-31T00:22:31;45.81;37.95;67.14;;
69616;Laerm;56822;52.516;4.708;2023-10-31T00:22:41;44.02;37.00;60.24;;
69616;Laerm;56822;52.516;4.708;2023-10-31T00:22:52;43.65;36.48;63.47;;
69616;Laerm;56822;52.516;4.708;2023-10-31T00:23:02;43.12;37.92;55.20;;
69616;Laerm;56822;52.516;4.708;2023-10-31T00:23:12;43.72;39.08;53.59;;
69616;Laerm;56822;52.516;4.708;2023-10-31T00:23:22;43.81;37.16;60.74;;
69616;Laerm;56822;52.516;4.708;2023-10-31T00:23:33;43.10;35.18;61.55;;
69616;Laerm;56822;52.516;4.708;2023-10-31T00:23:44;67.60;34.84;92.29;;
69616;Laerm;56822;52.516;4.708;2023-10-31T00:23:54;50.94;34.55;75.27;;
69616;Laerm;56822;52.516;4.708;2023-10-31T00:24:04;40.94;35.66;48.71;;
69616;Laerm;56822;52.516;4.708;2023-10-31T00:24:15;57.53;36.33;81.41;;
69616;Laerm;56822;52.516;4.708;2023-10-31T00:24:25;43.25;37.23;57.60;;
69616;Laerm;56822;52.516;4.708;2023-10-31T00:24:36;42.81;37.42;51.00;;
69616;Laerm;56822;52.516;4.708;2023-10-31T00:24:46;60.94;38.60;85.62;;
69616;Laerm;56822;52.516;4.708;2023-10-31T00:24:56;44.36;39.55;55.80;;
69616;Laerm;56822;52.516;4.708;2023-10-31T00:25:07;42.08;34.31;51.25;;
69616;Laerm;56822;52.516;4.708;2023-10-31T00:25:17;41.72;36.07;48.79;;
69616;Laerm;56822;52.516;4.708;2023-10-31T00:25:27;43.15;37.49;56.78;;
69616;Laerm;56822;52.516;4.708;2023-10-31T00:25:38;45.07;36.12;66.14;;
69616;Laerm;56822;52.516;4.708;2023-10-31T00:25:48;41.99;35.21;50.44;;
69616;Laerm;56822;52.516;4.708;2023-10-31T00:25:58;43.09;36.90;57.65;;
69616;Laerm;56822;52.516;4.708;2023-10-31T00:26:08;42.62;38.49;50.14;;
69616;Laerm;56822;52.516;4.708;2023-10-31T00:26:19;65.51;35.46;90.47;;
69616;Laerm;56822;52.516;4.708;2023-10-31T00:26:30;45.40;36.99;66.82;;
69616;Laerm;56822;52.516;4.708;2023-10-31T00:26:40;43.14;35.61;61.03;;
69616;Laerm;56822;52.516;4.708;2023-10-31T00:26:50;49.70;35.48;73.34;;
69616;Laerm;56822;52.516;4.708;2023-10-31T00:27:01;41.21;35.10;48.11;;
69616;Laerm;56822;52.516;4.708;2023-10-31T00:27:11;42.18;35.23;57.24;;
69616;Laerm;56822;52.516;4.708;2023-10-31T00:27:22;58.54;36.95;80.93;;
69616;Laerm;56822;52.516;4.708;2023-10-31T00:27:32;59.50;37.10;83.84;;
69616;Laerm;56822;52.516;4.708;2023-10-31T00:27:43;42.46;36.96;50.21;;
69616;Laerm;56822;52.516;4.708;2023-10-31T00:27:53;42.19;36.21;53.71;;
69616;Laerm;56822;52.516;4.708;2023-10-31T00:28:03;43.15;37.37;55.82;;
69616;Laerm;56822;52.516;4.708;2023-10-31T00:28:14;52.08;36.97;76.37;;
69616;Laerm;56822;52.516;4.708;2023-10-31T00:28:24;43.41;36.91;60.84;;
69616;Laerm;56822;52.516;4.708;2023-10-31T00:28:34;61.40;37.57;86.02;;
69616;Laerm;56822;52.516;4.708;2023-10-31T00:28:45;42.98;36.94;56.83;;
69616;Laerm;56822;52.516;4.708;2023-10-31T00:28:55;44.04;35.83;63.33;;
69616;Laerm;56822;52.516;4.708;2023-10-31T00:29:05;52.71;35.01;76.32;;
69616;Laerm;56822;52.516;4.708;2023-10-31T00:29:16;65.87;35.45;90.56;;
69616;Laerm;56822;52.516;4.708;2023-10-31T00:29:27;41.80;36.29;53.92;;
69616;Laerm;56822;52.516;4.708;2023-10-31T00:29:38;59.56;36.71;84.19;;
69616;Laerm;56822;52.516;4.708;2023-10-31T00:29:48;65.72;37.35;90.36;;
69616;Laerm;56822;52.516;4.708;2023-10-31T00:29:58;42.33;35.89;48.42;;
69616;Laerm;56822;52.516;4.708;2023-10-31T00:30:08;59.05;39.14;83.60;;
69616;Laerm;56822;52.516;4.708;2023-10-31T00:30:19;44.43;38.69;60.87;;
69616;Laerm;56822;52.516;4.708;2023-10-31T00:30:29;46.34;38.09;67.16;;
69616;Laerm;56822;52.516;4.708;2023-10-31T00:30:39;53.41;36.06;76.85;;
69616;Laerm;56822;52.516;4.708;2023-10-31T00:30:50;43.27;36.54;56.18;;
69616;Laerm;56822;52.516;4.708;2023-10-31T00:31:00;43.76;37.37;59.24;;
69616;Laerm;56822;52.516;4.708;2023-10-31T00:31:11;55.06;37.25;74.90;;
69616;Laerm;56822;52.516;4.708;2023-10-31T00:31:21;48.04;37.23;69.45;;
69616;Laerm;56822;52.516;4.708;2023-10-31T00:31:31;47.93;37.16;70.49;;
69616;Laerm;56822;52.516;4.708;2023-10-31T00:31:44;58.22;36.82;82.15;;
69616;Laerm;56822;52.516;4.708;2023-10-31T00:31:55;53.12;37.24;77.30;;
69616;Laerm;56822;52.516;4.708;2023-10-31T00:32:05;43.07;37.42;55.93;;
69616;Laerm;56822;52.516;4.708;2023-10-31T00:32:15;54.71;37.19;79.18;;
69616;Laerm;56822;52.516;4.708;2023-10-31T00:32:26;44.49;37.96;61.91;;
69616;Laerm;56822;52.516;4.708;2023-10-31T00:32:36;43.36;38.32;53.87;;
69616;Laerm;56822;52.516;4.708;2023-10-31T00:32:46;43.78;37.89;57.15;;
69616;Laerm;56822;52.516;4.708;2023-10-31T00:32:57;43.48;38.46;51.65;;
69616;Laerm;56822;52.516;4.708;2023-10-31T00:33:07;62.13;37.32;86.68;;
69616;Laerm;56822;52.516;4.708;2023-10-31T00:33:17;43.65;38.30;55.22;;
69616;Laerm;56822;52.516;4.708;2023-10-31T00:33:28;44.40;38.87;57.92;;
69616;Laerm;56822;52.516;4.708;2023-10-31T00:33:38;68.05;41.07;92.67;;
69616;Laerm;56822;52.516;4.708;2023-10-31T00:33:48;50.58;38.38;74.08;;
69616;Laerm;56822;52.516;4.708;2023-10-31T00:33:58;55.61;38.73;80.00;;
69616;Laerm;56822;52.516;4.708;2023-10-31T00:34:09;44.90;38.74;57.01;;
69616;Laerm;56822;52.516;4.708;2023-10-31T00:34:20;45.41;40.03;56.38;;
69616;Laerm;56822;52.516;4.708;2023-10-31T00:34:30;58.61;40.59;82.78;;
69616;Laerm;56822;52.516;4.708;2023-10-31T00:34:41;44.45;39.58;56.51;;
69616;Laerm;56822;52.516;4.708;2023-10-31T00:34:51;45.21;39.45;59.68;;
69616;Laerm;56822;52.516;4.708;2023-10-31T00:35:01;55.55;40.84;78.50;;
69616;Laerm;56822;52.516;4.708;2023-10-31T00:35:11;53.81;40.95;77.88;;
69616;Laerm;56822;52.516;4.708;2023-10-31T00:35:22;44.96;39.69;58.44;;
69616;Laerm;56822;52.516;4.708;2023-10-31T00:35:32;50.11;39.68;69.06;;
69616;Laerm;56822;52.516;4.708;2023-10-31T00:35:43;55.82;38.36;78.68;;
69616;Laerm;56822;52.516;4.708;2023-10-31T00:35:53;45.31;40.39;58.73;;
69616;Laerm;56822;52.516;4.708;2023-10-31T00:36:03;44.79;41.19;50.72;;
69616;Laerm;56822;52.516;4.708;2023-10-31T00:36:14;61.54;38.76;86.01;;
69616;Laerm;56822;52.516;4.708;2023-10-31T00:36:24;47.38;38.74;69.72;;
69616;Laerm;56822;52.516;4.708;2023-10-31T00:36:34;43.82;38.64;53.19;;
69616;Laerm;56822;52.516;4.708;2023-10-31T00:36:45;43.97;39.58;51.64;;
69616;Laerm;56822;52.516;4.708;2023-10-31T00:36:55;42.90;37.41;52.19;;
69616;Laerm;56822;52.516;4.708;2023-10-31T00:37:05;53.73;38.40;77.97;;
69616;Laerm;56822;52.516;4.708;2023-10-31T00:37:15;63.56;39.17;88.21;;
69616;Laerm;56822;52.516;4.708;2023-10-31T00:37:26;45.20;39.46;64.11;;
69616;Laerm;56822;52.516;4.708;2023-10-31T00:37:36;43.63;39.05;50.87;;
69616;Laerm;56822;52.516;4.708;2023-10-31T00:37:46;59.57;38.15;84.06;;
69616;Laerm;56822;52.516;4.708;2023-10-31T00:37:57;53.17;37.33;77.50;;
69616;Laerm;56822;52.516;4.708;2023-10-31T00:38:07;44.22;39.39;55.94;;
69616;Laerm;56822;52.516;4.708;2023-10-31T00:38:17;44.15;39.43;61.02;;
69616;Laerm;56822;52.516;4.708;2023-10-31T00:38:27;51.11;39.50;74.59;;
69616;Laerm;56822;52.516;4.708;2023-10-31T00:38:38;68.71;38.81;92.26;;
69616;Laerm;56822;52.516;4.708;2023-10-31T00:38:48;43.38;38.72;48.75;;
69616;Laerm;56822;52.516;4.708;2023-10-31T00:38:58;43.44;39.55;51.49;;
69616;Laerm;56822;52.516;4.708;2023-10-31T00:39:09;61.31;39.24;85.97;;
69616;Laerm;56822;52.516;4.708;2023-10-31T00:39:19;44.00;38.95;56.83;;
69616;Laerm;56822;52.516;4.708;2023-10-31T00:39:29;43.33;39.22;53.09;;
69616;Laerm;56822;52.516;4.708;2023-10-31T00:39:40;42.86;37.52;54.65;;
69616;Laerm;56822;52.516;4.708;2023-10-31T00:39:50;45.27;38.98;59.92;;
69616;Laerm;56822;52.516;4.708;2023-10-31T00:40:01;43.78;38.93;57.84;;
69616;Laerm;56822;52.516;4.708;2023-10-31T00:40:11;43.10;38.17;54.33;;
69616;Laerm;56822;52.516;4.708;2023-10-31T00:40:21;43.34;36.63;53.15;;
69616;Laerm;56822;52.516;4.708;2023-10-31T00:40:32;43.22;38.33;53.57;;
69616;Laerm;56822;52.516;4.708;2023-10-31T00:40:42;50.31;38.07;73.30;;
69616;Laerm;56822;52.516;4.708;2023-10-31T00:40:52;60.02;37.51;84.57;;
69616;Laerm;56822;52.516;4.708;2023-10-31T00:41:04;46.51;38.09;68.56;;
69616;Laerm;56822;52.516;4.708;2023-10-31T00:41:14;42.94;37.82;50.94;;
69616;Laerm;56822;52.516;4.708;2023-10-31T00:41:24;42.40;37.24;49.66;;
69616;Laerm;56822;52.516;4.708;2023-10-31T00:41:35;42.83;35.81;60.85;;
69616;Laerm;56822;52.516;4.708;2023-10-31T00:41:45;44.59;37.72;64.01;;
69616;Laerm;56822;52.516;4.708;2023-10-31T00:41:58;51.78;39.45;76.54;;
69616;Laerm;56822;52.516;4.708;2023-10-31T00:42:09;43.27;38.78;51.16;;
69616;Laerm;56822;52.516;4.708;2023-10-31T00:42:19;42.65;38.36;50.00;;
69616;Laerm;56822;52.516;4.708;2023-10-31T00:42:29;42.99;38.56;53.49;;
69616;Laerm;56822;52.516;4.708;2023-10-31T00:42:39;42.56;36.87;49.63;;
69616;Laerm;56822;52.516;4.708;2023-10-31T00:42:51;42.60;37.44;50.30;;
69616;Laerm;56822;52.516;4.708;2023-10-31T00:43:02;51.41;37.30;75.32;;
69616;Laerm;56822;52.516;4.708;2023-10-31T00:43:12;44.01;39.43;52.61;;
69616;Laerm;56822;52.516;4.708;2023-10-31T00:43:22;61.91;38.20;86.59;;
69616;Laerm;56822;52.516;4.708;2023-10-31T00:43:33;42.12;36.22;51.85;;
69616;Laerm;56822;52.516;4.708;2023-10-31T00:43:43;42.66;36.08;58.05;;
69616;Laerm;56822;52.516;4.708;2023-10-31T00:43:53;42.33;36.68;49.97;;
69616;Laerm;56822;52.516;4.708;2023-10-31T00:44:04;40.91;34.28;48.20;;
69616;Laerm;56822;52.516;4.708;2023-10-31T00:44:14;41.19;33.26;49.51;;
69616;Laerm;56822;52.516;4.708;2023-10-31T00:44:24;43.32;33.79;62.50;;
69616;Laerm;56822;52.516;4.708;2023-10-31T00:44:35;41.03;33.54;53.79;;
69616;Laerm;56822;52.516;4.708;2023-10-31T00:44:45;56.15;36.47;80.68;;
69616;Laerm;56822;52.516;4.708;2023-10-31T00:44:55;47.54;35.00;71.01;;
69616;Laerm;56822;52.516;4.708;2023-10-31T00:45:06;40.42;33.76;49.51;;
69616;Laerm;56822;52.516;4.708;2023-10-31T00:45:16;46.52;34.69;68.91;;
69616;Laerm;56822;52.516;4.708;2023-10-31T00:45:26;40.63;34.96;51.46;;
69616;Laerm;56822;52.516;4.708;2023-10-31T00:45:37;41.80;35.78;50.73;;
69616;Laerm;56822;52.516;4.708;2023-10-31T00:45:47;41.29;34.44;52.97;;
69616;Laerm;56822;52.516;4.708;2023-10-31T00:45:57;41.89;35.37;50.58;;
69616;Laerm;56822;52.516;4.708;2023-10-31T00:46:08;40.25;34.20;47.71;;
69616;Laerm;56822;52.516;4.708;2023-10-31T00:46:18;40.51;34.01;51.65;;
69616;Laerm;56822;52.516;4.708;2023-10-31T00:46:28;48.18;34.44;71.78;;
69616;Laerm;56822;52.516;4.708;2023-10-31T00:46:39;42.49;36.46;57.60;;
69616;Laerm;56822;52.516;4.708;2023-10-31T00:46:49;40.35;33.23;50.27;;
69616;Laerm;56822;52.516;4.708;2023-10-31T00:46:59;40.76;32.34;55.06;;
69616;Laerm;56822;52.516;4.708;2023-10-31T00:47:10;40.00;32.85;51.01;;
69616;Laerm;56822;52.516;4.708;2023-10-31T00:47:20;53.05;33.25;76.49;;
69616;Laerm;56822;52.516;4.708;2023-10-31T00:47:31;40.12;32.61;48.28;;
69616;Laerm;56822;52.516;4.708;2023-10-31T00:47:41;42.01;33.82;61.15;;
69616;Laerm;56822;52.516;4.708;2023-10-31T00:47:51;40.19;33.62;51.07;;
69616;Laerm;56822;52.516;4.708;2023-10-31T00:48:02;60.20;33.89;84.89;;
69616;Laerm;56822;52.516;4.708;2023-10-31T00:48:12;41.04;34.34;51.83;;
69616;Laerm;56822;52.516;4.708;2023-10-31T00:48:22;43.66;34.33;63.20;;
69616;Laerm;56822;52.516;4.708;2023-10-31T00:48:33;55.66;35.64;80.19;;
69616;Laerm;56822;52.516;4.708;2023-10-31T00:48:46;50.19;35.43;75.32;;
69616;Laerm;56822;52.516;4.708;2023-10-31T00:48:57;46.21;36.47;68.79;;
69616;Laerm;56822;52.516;4.708;2023-10-31T00:49:07;41.25;34.91;51.64;;
69616;Laerm;56822;52.516;4.708;2023-10-31T00:49:17;40.91;34.72;52.23;;
69616;Laerm;56822;52.516;4.708;2023-10-31T00:49:28;53.01;35.75;77.32;;
69616;Laerm;56822;52.516;4.708;2023-10-31T00:49:38;44.26;35.33;65.31;;
69616;Laerm;56822;52.516;4.708;2023-10-31T00:49:48;51.84;35.02;75.91;;
69616;Laerm;56822;52.516;4.708;2023-10-31T00:49:59;45.00;35.36;67.51;;
69616;Laerm;56822;52.516;4.708;2023-10-31T00:50:09;50.98;34.97;74.25;;
69616;Laerm;56822;52.516;4.708;2023-10-31T00:50:19;52.54;35.35;76.86;;
69616;Laerm;56822;52.516;4.708;2023-10-31T00:50:29;41.45;35.43;54.73;;
69616;Laerm;56822;52.516;4.708;2023-10-31T00:50:40;40.46;34.21;50.82;;
69616;Laerm;56822;52.516;4.708;2023-10-31T00:50:50;40.24;34.33;47.51;;
69616;Laerm;56822;52.516;4.708;2023-10-31T00:51:00;40.64;33.79;48.94;;
69616;Laerm;56822;52.516;4.708;2023-10-31T00:51:11;39.87;32.29;49.04;;
69616;Laerm;56822;52.516;4.708;2023-10-31T00:51:21;40.29;33.83;48.62;;
69616;Laerm;56822;52.516;4.708;2023-10-31T00:51:32;51.40;34.58;75.38;;
69616;Laerm;56822;52.516;4.708;2023-10-31T00:51:42;51.79;35.76;76.12;;
69616;Laerm;56822;52.516;4.708;2023-10-31T00:51:52;42.80;38.53;50.65;;
69616;Laerm;56822;52.516;4.708;2023-10-31T00:52:03;48.63;36.76;70.73;;
69616;Laerm;56822;52.516;4.708;2023-10-31T00:52:13;41.66;36.47;49.05;;
69616;Laerm;56822;52.516;4.708;2023-10-31T00:52:23;41.33;36.43;47.44;;
69616;Laerm;56822;52.516;4.708;2023-10-31T00:52:34;43.22;39.50;51.04;;
69616;Laerm;56822;52.516;4.708;2023-10-31T00:52:44;57.44;35.78;82.02;;
69616;Laerm;56822;52.516;4.708;2023-10-31T00:52:54;41.61;35.97;56.77;;
69616;Laerm;56822;52.516;4.708;2023-10-31T00:53:04;41.48;34.85;56.21;;
69616;Laerm;56822;52.516;4.708;2023-10-31T00:53:15;40.45;34.30;49.08;;
69616;Laerm;56822;52.516;4.708;2023-10-31T00:53:26;41.43;35.33;49.32;;
69616;Laerm;56822;52.516;4.708;2023-10-31T00:53:36;45.41;34.75;67.99;;
69616;Laerm;56822;52.516;4.708;2023-10-31T00:53:47;41.15;34.74;51.27;;
69616;Laerm;56822;52.516;4.708;2023-10-31T00:53:57;45.36;34.74;66.33;;
69616;Laerm;56822;52.516;4.708;2023-10-31T00:54:07;40.99;33.61;49.93;;
69616;Laerm;56822;52.516;4.708;2023-10-31T00:54:18;39.97;33.26;54.14;;
69616;Laerm;56822;52.516;4.708;2023-10-31T00:54:28;40.50;33.41;53.64;;
69616;Laerm;56822;52.516;4.708;2023-10-31T00:54:38;39.73;33.07;52.15;;
69616;Laerm;56822;52.516;4.708;2023-10-31T00:54:48;40.30;32.59;53.65;;
69616;Laerm;56822;52.516;4.708;2023-10-31T00:54:59;46.80;33.57;70.43;;
69616;Laerm;56822;52.516;4.708;2023-10-31T00:55:09;40.34;33.68;49.05;;
69616;Laerm;56822;52.516;4.708;2023-10-31T00:55:19;56.23;32.88;80.84;;
69616;Laerm;56822;52.516;4.708;2023-10-31T00:55:30;39.94;32.44;54.58;;
69616;Laerm;56822;52.516;4.708;2023-10-31T00:55:40;40.86;34.52;52.76;;
69616;Laerm;56822;52.516;4.708;2023-10-31T00:55:51;39.63;33.40;54.20;;
69616;Laerm;56822;52.516;4.708;2023-10-31T00:56:01;39.25;31.83;50.26;;
69616;Laerm;56822;52.516;4.708;2023-10-31T00:56:12;46.29;31.32;70.13;;
69616;Laerm;56822;52.516;4.708;2023-10-31T00:56:22;40.15;33.60;50.43;;
69616;Laerm;56822;52.516;4.708;2023-10-31T00:56:32;61.67;33.37;86.34;;
69616;Laerm;56822;52.516;4.708;2023-10-31T00:56:43;41.55;35.52;55.52;;
69616;Laerm;56822;52.516;4.708;2023-10-31T00:56:53;38.71;33.12;50.16;;
69616;Laerm;56822;52.516;4.708;2023-10-31T00:57:03;52.29;33.90;76.77;;
69616;Laerm;56822;52.516;4.708;2023-10-31T00:57:14;42.26;33.30;63.60;;
69616;Laerm;56822;52.516;4.708;2023-10-31T00:57:24;38.88;32.78;48.17;;
69616;Laerm;56822;52.516;4.708;2023-10-31T00:57:35;40.03;34.09;48.71;;
69616;Laerm;56822;52.516;4.708;2023-10-31T00:57:45;40.55;34.54;58.15;;
69616;Laerm;56822;52.516;4.708;2023-10-31T00:57:55;40.51;33.50;54.70;;
69616;Laerm;56822;52.516;4.708;2023-10-31T00:58:05;43.18;33.15;64.58;;